Time;durP1;ratioP1;P1;durP2;ratioP2;P2;SDS_P1;SDS_P2;PMS_P1;PMS_P2;Temp;Humidity;BMP_temperature;BMP_pressure;BME280_temperature;BME280_humidity;BME280_pressure;Samples;Min_cycle;Max_cycle;Signal;HPM_P1;HPM_P2
2023/09/07 00:01:19;;;;;;;3.90;1.98;;;;;;;27.61;34.68;99382.47;4985819;28;20557;-76
2023/09/07 00:03:44;;;;;;;3.40;2.20;;;;;;;27.61;35.04;99378.97;4984580;28;20027;-77
2023/09/07 00:06:10;;;;;;;4.43;2.40;;;;;;;27.61;34.27;99387.81;5000043;28;20081;-77
2023/09/07 00:08:35;;;;;;;4.95;2.50;;;;;;;27.60;34.93;99380.78;4991893;28;20113;-77
2023/09/07 00:11:05;;;;;;;3.70;2.15;;;;;;;27.60;34.60;99385.31;4987751;28;20030;-77
2023/09/07 00:13:31;;;;;;;3.20;2.10;;;;;;;27.60;34.66;99386.13;4973121;28;20057;-77
2023/09/07 00:16:01;;;;;;;3.75;2.38;;;;;;;27.57;35.09;99375.69;4973088;28;20031;-77
2023/09/07 00:18:27;;;;;;;4.35;2.40;;;;;;;27.59;34.92;99384.44;4973034;28;20031;-77
2023/09/07 00:20:52;;;;;;;3.88;2.45;;;;;;;27.57;35.77;99381.03;4973022;28;20027;-77
2023/09/07 00:23:19;;;;;;;4.13;2.60;;;;;;;27.57;34.99;99383.72;4989198;28;20019;-77
2023/09/07 00:25:45;;;;;;;4.40;2.42;;;;;;;27.56;35.58;99378.50;4990495;28;20022;-77
2023/09/07 00:28:10;;;;;;;3.50;2.25;;;;;;;27.55;35.67;99377.63;4992303;28;20725;-77
2023/09/07 00:30:36;;;;;;;3.90;2.30;;;;;;;27.54;35.68;99370.59;4992306;28;20023;-76
2023/09/07 00:33:01;;;;;;;4.15;2.33;;;;;;;27.53;36.25;99374.25;4992426;28;20029;-77
2023/09/07 00:35:26;;;;;;;3.40;2.20;;;;;;;27.54;35.44;99375.94;4995978;28;20030;-75
2023/09/07 00:37:52;;;;;;;3.45;2.40;;;;;;;27.52;36.05;99375.25;4995761;28;20019;-76
2023/09/07 00:40:17;;;;;;;4.70;2.60;;;;;;;27.53;36.10;99368.03;4995819;28;20038;-77
2023/09/07 00:42:43;;;;;;;3.22;2.28;;;;;;;27.52;36.44;99372.56;4978998;28;20023;-77
2023/09/07 00:45:08;;;;;;;3.55;2.08;;;;;;;27.52;36.17;99364.53;4975114;28;20035;-77
2023/09/07 00:47:37;;;;;;;4.63;2.17;;;;;;;27.51;36.11;99364.66;4995365;28;20038;-77
2023/09/07 00:50:04;;;;;;;3.78;2.33;;;;;;;27.50;36.67;99363.78;4995584;28;20474;-77
2023/09/07 00:52:30;;;;;;;3.50;1.95;;;;;;;27.50;36.42;99362.97;4995370;28;20065;-77
2023/09/07 00:54:56;;;;;;;4.03;2.38;;;;;;;27.49;36.79;99362.09;4995696;28;20037;-76
2023/09/07 00:57:22;;;;;;;3.85;2.55;;;;;;;27.50;36.53;99357.59;4995469;28;20030;-76
2023/09/07 00:59:47;;;;;;;3.60;2.20;;;;;;;27.48;36.15;99358.59;4995713;28;20034;-77
2023/09/07 01:02:13;;;;;;;2.97;1.90;;;;;;;27.47;36.70;99358.72;4995411;28;20050;-76
2023/09/07 01:04:38;;;;;;;4.63;2.45;;;;;;;27.47;36.83;99359.56;5001706;28;20104;-76
2023/09/07 01:07:23;;;;;;;4.43;2.38;;;;;;;27.50;36.44;99368.34;5014852;28;20049;-76
2023/09/07 01:09:54;;;;;;;4.55;2.25;;;;;;;27.46;36.82;99362.41;5015249;28;20029;-77
2023/09/07 01:12:19;;;;;;;3.47;2.08;;;;;;;27.47;36.63;99358.72;5006128;28;20030;-77
2023/09/07 01:14:45;;;;;;;3.08;2.00;;;;;;;27.45;36.60;99360.72;4995175;28;20033;-77
2023/09/07 01:17:13;;;;;;;3.38;2.17;;;;;;;27.42;36.75;99359.16;4995261;28;20038;-76
2023/09/07 01:19:39;;;;;;;3.38;2.20;;;;;;;27.42;36.68;99350.25;4995189;28;20026;-76
2023/09/07 01:22:06;;;;;;;2.97;1.95;;;;;;;27.40;36.86;99357.59;4994682;28;20030;-77
2023/09/07 01:24:34;;;;;;;4.10;2.50;;;;;;;27.40;36.92;99357.59;4994992;28;20092;-76
2023/09/07 01:27:03;;;;;;;3.65;2.50;;;;;;;27.40;37.39;99354.94;4994716;28;20500;-77
2023/09/07 01:29:29;;;;;;;4.43;2.50;;;;;;;27.40;37.34;99355.75;4995037;28;20099;-77
2023/09/07 01:31:54;;;;;;;4.13;2.40;;;;;;;27.38;37.19;99360.41;4994831;28;20026;-77
2023/09/07 01:34:20;;;;;;;3.80;2.38;;;;;;;27.40;36.75;99353.06;4995128;28;20033;-77
2023/09/07 01:36:45;;;;;;;3.65;2.40;;;;;;;27.42;37.03;99350.25;4994402;28;20030;-77
2023/09/07 01:39:11;;;;;;;4.55;2.53;;;;;;;27.41;37.08;99352.09;4994965;28;20034;-76
2023/09/07 01:41:36;;;;;;;3.60;2.25;;;;;;;27.38;37.35;99349.69;4994668;28;20056;-77
2023/09/07 01:44:02;;;;;;;3.65;2.38;;;;;;;27.40;36.80;99341.53;4994826;28;20019;-77
2023/09/07 01:46:27;;;;;;;4.03;2.42;;;;;;;27.38;36.92;99343.47;4993350;28;20022;-77
2023/09/07 01:48:53;;;;;;;3.92;2.20;;;;;;;27.40;36.94;99346.88;4994721;28;20645;-77
2023/09/07 01:51:18;;;;;;;4.65;2.80;;;;;;;27.38;36.98;99348.84;4988967;28;20450;-77
2023/09/07 01:53:46;;;;;;;3.38;2.30;;;;;;;27.39;37.16;99340.66;4975123;28;20101;-77
2023/09/07 01:56:12;;;;;;;4.20;2.70;;;;;;;27.37;36.91;99345.31;4975191;28;20039;-76
2023/09/07 01:58:37;;;;;;;3.75;2.58;;;;;;;27.38;37.27;99349.69;4973811;28;20027;-77
2023/09/07 02:01:03;;;;;;;3.45;2.35;;;;;;;27.38;37.12;99354.19;4991215;28;20037;-76
2023/09/07 02:03:28;;;;;;;4.22;2.63;;;;;;;27.40;36.94;99354.94;4993197;28;20026;-76
2023/09/07 02:05:54;;;;;;;4.60;2.80;;;;;;;27.36;37.16;99356.19;5008902;28;20112;-76
2023/09/07 02:08:20;;;;;;;3.65;2.40;;;;;;;27.38;37.05;99354.19;5013913;28;20382;-77
2023/09/07 02:10:45;;;;;;;4.40;2.80;;;;;;;27.39;37.03;99356.75;5013836;28;20028;-76
2023/09/07 02:13:11;;;;;;;3.90;2.30;;;;;;;27.38;37.35;99347.00;5013881;28;20073;-77
2023/09/07 02:15:40;;;;;;;4.40;2.65;;;;;;;27.38;36.85;99349.69;5013699;28;20083;-76
2023/09/07 02:18:06;;;;;;;4.22;2.65;;;;;;;27.39;37.21;99350.53;5013625;28;20033;-76
2023/09/07 02:20:32;;;;;;;5.70;2.88;;;;;;;27.38;37.05;99343.47;5013380;28;20030;-77
2023/09/07 02:22:58;;;;;;;4.28;2.47;;;;;;;27.39;37.22;99350.53;5013586;28;20022;-77
2023/09/07 02:25:24;;;;;;;4.47;2.83;;;;;;;27.39;36.93;99350.53;5005697;28;20048;-76
2023/09/07 02:27:49;;;;;;;4.20;2.50;;;;;;;27.37;37.49;99348.00;4993927;28;20070;-76
2023/09/07 02:30:15;;;;;;;4.40;2.90;;;;;;;27.37;37.07;99341.78;4993739;28;20027;-77
2023/09/07 02:32:42;;;;;;;3.72;2.60;;;;;;;27.36;37.17;99353.50;4993801;28;20023;-77
2023/09/07 02:35:08;;;;;;;4.82;2.65;;;;;;;27.33;36.97;99352.81;4992065;28;20025;-78
2023/09/07 02:37:35;;;;;;;4.22;2.90;;;;;;;27.32;37.26;99361.78;4993918;28;20109;-77
2023/09/07 02:40:00;;;;;;;3.65;2.45;;;;;;;27.32;37.14;99353.75;4993853;28;20018;-76
2023/09/07 02:42:26;;;;;;;3.90;2.65;;;;;;;27.34;37.31;99354.50;4993566;28;20022;-76
2023/09/07 02:44:51;;;;;;;4.07;2.88;;;;;;;27.33;37.29;99357.28;4993452;28;20463;-76
2023/09/07 02:47:16;;;;;;;4.00;2.90;;;;;;;27.32;37.06;99355.59;4993308;28;20028;-77
2023/09/07 02:49:42;;;;;;;3.95;2.60;;;;;;;27.31;37.10;99362.78;4993196;28;20026;-76
2023/09/07 02:52:07;;;;;;;4.20;2.72;;;;;;;27.32;37.04;99356.44;4993429;28;20069;-77
2023/09/07 02:54:33;;;;;;;4.25;2.40;;;;;;;27.27;37.63;99361.38;4992166;28;20080;-76
2023/09/07 02:56:58;;;;;;;4.00;2.92;;;;;;;27.28;37.19;99360.41;4992977;28;20467;-77
2023/09/07 02:59:24;;;;;;;4.20;2.88;;;;;;;27.25;37.38;99355.31;4993318;28;20034;-76
2023/09/07 03:01:49;;;;;;;4.28;2.53;;;;;;;27.27;37.20;99361.38;4992456;28;20052;-76
2023/09/07 03:04:14;;;;;;;4.18;2.70;;;;;;;27.26;37.22;99357.00;4996291;28;20103;-76
2023/09/07 03:06:40;;;;;;;4.65;2.80;;;;;;;27.26;37.27;99361.53;5012873;28;20470;-77
2023/09/07 03:09:08;;;;;;;4.47;2.85;;;;;;;27.27;37.45;99366.75;5012723;28;20097;-76
2023/09/07 03:11:34;;;;;;;4.80;2.95;;;;;;;27.24;37.58;99364.31;5011524;28;20029;-77
2023/09/07 03:14:00;;;;;;;4.13;2.83;;;;;;;27.24;37.19;99364.31;5012839;28;20441;-77
2023/09/07 03:16:26;;;;;;;4.30;2.75;;;;;;;27.23;37.19;99362.63;5011091;28;20092;-77
2023/09/07 03:18:51;;;;;;;3.88;2.70;;;;;;;27.21;37.66;99356.56;5012717;28;20133;-77
2023/09/07 03:21:17;;;;;;;5.43;2.92;;;;;;;27.20;37.39;99360.22;5011260;28;20029;-77
2023/09/07 03:23:44;;;;;;;4.68;2.70;;;;;;;27.19;37.39;99361.22;5012536;28;20029;-77
2023/09/07 03:26:10;;;;;;;4.72;3.00;;;;;;;27.20;37.67;99362.91;5008720;28;20022;-76
2023/09/07 03:28:36;;;;;;;4.22;2.65;;;;;;;27.17;37.75;99363.19;4991658;28;20031;-77
2023/09/07 03:31:01;;;;;;;4.63;3.08;;;;;;;27.17;37.44;99368.53;4991299;28;20557;-77
2023/09/07 03:33:27;;;;;;;4.70;2.78;;;;;;;27.17;37.36;99366.69;4992928;28;20034;-76
2023/09/07 03:35:53;;;;;;;4.35;2.85;;;;;;;27.16;37.73;99362.31;4992570;28;20084;-76
2023/09/07 03:38:18;;;;;;;4.13;2.63;;;;;;;27.17;37.36;99363.19;4992647;28;20088;-76
2023/09/07 03:40:44;;;;;;;4.32;2.85;;;;;;;27.17;37.73;99357.84;4992790;28;20034;-75
2023/09/07 03:43:09;;;;;;;4.18;2.88;;;;;;;27.16;37.25;99364.19;4991472;28;20553;-77
2023/09/07 03:45:35;;;;;;;4.78;2.90;;;;;;;27.15;37.55;99357.09;4992732;28;20568;-77
2023/09/07 03:48:00;;;;;;;4.57;2.65;;;;;;;27.14;37.69;99358.09;4992642;28;20398;-77
2023/09/07 03:50:26;;;;;;;4.38;2.60;;;;;;;27.14;37.64;99360.75;4992542;28;20038;-77
2023/09/07 03:52:51;;;;;;;4.45;3.05;;;;;;;27.14;37.50;99358.94;4992484;28;20089;-77
2023/09/07 03:55:17;;;;;;;4.18;2.75;;;;;;;27.12;37.70;99354.72;4992740;28;20077;-76
2023/09/07 03:57:42;;;;;;;3.80;2.65;;;;;;;27.12;37.46;99365.44;4992867;28;20471;-77
2023/09/07 04:00:08;;;;;;;4.63;2.90;;;;;;;27.13;37.72;99359.06;4992450;28;20495;-77
2023/09/07 04:02:34;;;;;;;3.97;2.80;;;;;;;27.12;37.51;99360.91;4992843;28;20046;-75
2023/09/07 04:05:02;;;;;;;4.15;2.90;;;;;;;27.09;37.66;99358.50;5001756;28;20474;-77
2023/09/07 04:07:27;;;;;;;5.50;2.80;;;;;;;27.10;37.85;99357.53;5012225;28;20034;-77
2023/09/07 04:09:52;;;;;;;4.20;2.75;;;;;;;27.08;37.82;99354.97;5015503;28;20445;-76
2023/09/07 04:12:18;;;;;;;4.50;2.88;;;;;;;27.07;37.60;99357.81;5015970;28;20116;-76
2023/09/07 04:14:44;;;;;;;3.90;2.92;;;;;;;27.07;37.70;99347.94;4999698;28;20038;-77
2023/09/07 04:17:10;;;;;;;4.28;2.72;;;;;;;27.06;37.63;99351.59;4996213;28;20031;-77
2023/09/07 04:19:35;;;;;;;4.85;3.10;;;;;;;27.05;37.59;99360.63;4996410;28;20034;-77
2023/09/07 04:22:01;;;;;;;3.65;2.60;;;;;;;27.04;37.90;99355.38;4994995;28;20038;-77
2023/09/07 04:24:29;;;;;;;4.35;2.72;;;;;;;27.04;37.71;99353.56;4996209;28;20033;-77
2023/09/07 04:27:00;;;;;;;4.82;2.83;;;;;;;27.03;37.66;99351.84;4996206;28;20590;-77
2023/09/07 04:29:26;;;;;;;4.30;2.83;;;;;;;27.03;37.88;99351.03;4995827;28;20027;-77
2023/09/07 04:31:52;;;;;;;4.28;2.72;;;;;;;27.02;37.94;99347.47;4996169;28;20537;-76
2023/09/07 04:34:17;;;;;;;4.38;3.05;;;;;;;27.03;37.56;99351.03;4994710;28;20031;-75
2023/09/07 04:36:43;;;;;;;4.10;2.78;;;;;;;27.02;38.00;99347.47;4995984;28;20057;-77
2023/09/07 04:39:08;;;;;;;3.85;2.78;;;;;;;27.00;37.95;99349.47;4996094;28;20510;-77
2023/09/07 04:41:33;;;;;;;5.00;3.03;;;;;;;27.00;37.61;99346.78;4996128;28;20406;-76
2023/09/07 04:43:59;;;;;;;5.15;2.92;;;;;;;26.99;37.84;99334.38;4995571;28;20495;-77
2023/09/07 04:46:24;;;;;;;4.50;2.97;;;;;;;26.99;37.99;99338.88;4994752;28;20069;-76
2023/09/07 04:48:49;;;;;;;4.68;2.90;;;;;;;26.99;37.94;99337.06;4995787;28;20026;-77
2023/09/07 04:51:15;;;;;;;5.07;3.30;;;;;;;26.97;37.82;99336.34;4995783;28;20073;-76
2023/09/07 04:53:40;;;;;;;4.78;3.00;;;;;;;26.98;38.00;99327.34;4995847;28;20026;-77
2023/09/07 04:56:08;;;;;;;5.95;3.35;;;;;;;26.97;37.62;99330.97;4995619;28;20097;-76
2023/09/07 04:58:34;;;;;;;4.05;3.00;;;;;;;26.96;38.00;99326.63;4995463;28;20112;-76
2023/09/07 05:01:08;;;;;;;4.53;2.97;;;;;;;26.96;37.90;99326.63;4995582;28;20030;-77
2023/09/07 05:03:34;;;;;;;4.57;2.97;;;;;;;26.97;38.02;99332.81;4994396;28;20034;-76
2023/09/07 05:06:00;;;;;;;4.40;2.80;;;;;;;26.96;37.73;99329.28;5011188;28;20528;-76
2023/09/07 05:08:26;;;;;;;4.30;2.90;;;;;;;26.97;37.70;99340.84;5014045;28;20386;-76
2023/09/07 05:10:56;;;;;;;4.95;3.00;;;;;;;26.95;37.91;99332.94;5013841;28;20045;-77
2023/09/07 05:13:22;;;;;;;4.72;3.08;;;;;;;26.91;37.61;99331.50;5013452;28;20072;-77
2023/09/07 05:15:51;;;;;;;4.60;3.17;;;;;;;26.93;37.80;99341.13;5011669;28;20481;-76
2023/09/07 05:18:18;;;;;;;5.05;3.35;;;;;;;26.93;37.60;99348.31;4994073;28;20030;-77
2023/09/07 05:20:53;;;;;;;6.50;2.80;;;;;;;26.92;37.55;99355.50;4993836;28;20030;-76
2023/09/07 05:23:19;;;;;;;4.38;3.03;;;;;;;26.91;37.61;99358.25;4993879;28;20034;-76
2023/09/07 05:25:46;;;;;;;4.97;3.20;;;;;;;26.93;37.97;99372.41;4993992;28;20053;-77
2023/09/07 05:28:13;;;;;;;3.60;2.58;;;;;;;26.91;37.92;99368.97;4993542;28;20109;-77
2023/09/07 05:30:39;;;;;;;5.50;3.05;;;;;;;26.90;37.92;99367.28;4993976;28;20026;-77
2023/09/07 05:33:04;;;;;;;4.35;2.80;;;;;;;26.90;38.09;99370.81;4993915;28;20030;-77
2023/09/07 05:35:32;;;;;;;4.00;2.92;;;;;;;26.89;37.57;99376.31;4993845;28;20109;-78
2023/09/07 05:37:58;;;;;;;4.68;2.95;;;;;;;26.87;37.58;99359.53;4993656;28;20038;-77
2023/09/07 05:40:23;;;;;;;5.00;3.17;;;;;;;26.90;37.81;99367.28;4993725;28;20113;-77
2023/09/07 05:42:48;;;;;;;4.78;3.03;;;;;;;26.89;37.62;99360.25;4993298;28;20026;-77
2023/09/07 05:45:14;;;;;;;4.63;2.83;;;;;;;26.89;37.54;99371.81;4993432;28;20038;-77
2023/09/07 05:47:39;;;;;;;4.28;2.90;;;;;;;26.88;37.93;99367.41;4992803;28;20018;-77
2023/09/07 05:50:05;;;;;;;4.90;2.90;;;;;;;26.86;37.92;99365.84;4993683;28;20542;-77
2023/09/07 05:52:30;;;;;;;4.45;2.50;;;;;;;26.85;37.83;99373.06;4993608;28;20034;-76
2023/09/07 05:54:56;;;;;;;3.53;2.42;;;;;;;26.85;37.48;99369.50;4993188;28;20106;-77
2023/09/07 05:57:21;;;;;;;5.15;2.85;;;;;;;26.84;37.52;99371.38;4993387;28;20026;-77
2023/09/07 05:59:46;;;;;;;4.18;2.65;;;;;;;26.83;37.55;99366.13;4992213;28;20438;-77
2023/09/07 06:02:12;;;;;;;4.07;2.80;;;;;;;26.83;37.85;99371.50;4935044;28;1470006;-77
2023/09/07 06:04:37;;;;;;;4.22;2.97;;;;;;;26.81;37.59;99371.63;4986644;28;20044;-78
2023/09/07 06:07:03;;;;;;;4.15;2.55;;;;;;;26.80;37.94;99376.13;5014089;28;20022;-76
2023/09/07 06:09:29;;;;;;;4.85;2.75;;;;;;;26.83;37.81;99382.19;5013873;28;20030;-77
2023/09/07 06:11:54;;;;;;;4.43;2.78;;;;;;;26.79;37.55;99377.09;5008039;28;20023;-77
2023/09/07 06:14:20;;;;;;;4.03;2.90;;;;;;;26.83;37.54;99382.19;4994208;28;20069;-77
2023/09/07 06:16:45;;;;;;;4.55;2.78;;;;;;;26.79;37.90;99387.81;4994131;28;20479;-77
2023/09/07 06:19:10;;;;;;;3.70;2.58;;;;;;;26.78;37.70;99380.75;4986877;28;20030;-76
2023/09/07 06:21:36;;;;;;;4.03;2.53;;;;;;;26.80;37.58;99381.50;4977272;28;20029;-76
2023/09/07 06:24:01;;;;;;;4.45;2.75;;;;;;;26.80;37.79;99378.81;4994170;28;20029;-77
2023/09/07 06:26:27;;;;;;;4.25;2.45;;;;;;;26.79;37.59;99377.09;4993681;28;20034;-76
2023/09/07 06:28:52;;;;;;;3.78;2.33;;;;;;;26.77;37.65;99379.06;4993828;28;20065;-77
2023/09/07 06:31:17;;;;;;;4.00;2.65;;;;;;;26.80;37.56;99384.16;4992124;28;20116;-77
2023/09/07 06:33:43;;;;;;;4.35;3.00;;;;;;;26.81;37.48;99380.50;4974599;28;20033;-77
2023/09/07 06:36:08;;;;;;;4.93;2.30;;;;;;;26.79;37.41;99374.41;4974196;28;20031;-77
2023/09/07 06:38:33;;;;;;;3.83;2.78;;;;;;;26.81;37.79;99376.97;4974385;28;20026;-77
2023/09/07 06:40:59;;;;;;;4.20;2.70;;;;;;;26.81;37.60;99376.97;4974135;28;20031;-77
2023/09/07 06:43:24;;;;;;;4.88;2.72;;;;;;;26.79;37.43;99371.75;4991008;28;20390;-78
2023/09/07 06:45:50;;;;;;;4.22;2.63;;;;;;;26.81;37.34;99385.84;4993419;28;20026;-78
2023/09/07 06:48:15;;;;;;;4.00;2.72;;;;;;;26.79;37.82;99386.97;4993445;28;20441;-77
2023/09/07 06:50:40;;;;;;;3.72;2.47;;;;;;;26.80;37.78;99392.19;4992243;28;20026;-77
2023/09/07 06:53:06;;;;;;;6.00;2.63;;;;;;;26.80;37.70;99389.53;4979119;28;20034;-77
2023/09/07 06:55:31;;;;;;;4.03;2.38;;;;;;;26.79;37.74;99387.81;4973594;28;20023;-77
2023/09/07 06:57:57;;;;;;;3.83;2.67;;;;;;;26.78;37.23;99391.47;4974081;28;20487;-76
2023/09/07 07:00:22;;;;;;;4.15;2.70;;;;;;;26.79;37.36;99390.47;4974127;28;20034;-78
2023/09/07 07:02:48;;;;;;;4.22;2.72;;;;;;;26.79;37.61;99398.50;4985396;28;20418;-77
2023/09/07 07:05:13;;;;;;;4.30;2.55;;;;;;;26.80;37.53;99394.88;5004024;28;20034;-76
2023/09/07 07:07:39;;;;;;;4.63;2.80;;;;;;;26.79;37.64;99403.84;5012858;28;20033;-77
2023/09/07 07:10:06;;;;;;;3.88;2.50;;;;;;;26.79;37.41;99403.84;5012574;28;20026;-77
2023/09/07 07:12:34;;;;;;;4.10;2.53;;;;;;;26.79;37.63;99403.84;5002734;28;20571;-76
2023/09/07 07:15:00;;;;;;;5.32;2.97;;;;;;;26.81;37.28;99406.41;4993196;28;20471;-77
2023/09/07 07:17:25;;;;;;;3.97;2.55;;;;;;;26.80;37.28;99413.63;4992950;28;20058;-76
2023/09/07 07:19:51;;;;;;;3.47;2.40;;;;;;;26.83;37.32;99417.00;4993043;28;20386;-77
2023/09/07 07:22:16;;;;;;;4.25;2.70;;;;;;;26.80;37.31;99408.25;4992831;28;20044;-77
2023/09/07 07:24:43;;;;;;;4.85;2.67;;;;;;;26.81;37.48;99417.97;4992684;28;20031;-78
2023/09/07 07:27:08;;;;;;;4.65;2.40;;;;;;;26.80;37.24;99416.28;4992904;28;20486;-77
2023/09/07 07:29:33;;;;;;;4.65;2.60;;;;;;;26.81;37.55;99417.97;4993025;28;20045;-77
2023/09/07 07:31:59;;;;;;;4.20;2.80;;;;;;;26.81;37.42;99419.78;4987890;28;20483;-77
2023/09/07 07:34:24;;;;;;;4.82;2.72;;;;;;;26.80;37.36;99421.66;4973503;28;20034;-77
2023/09/07 07:36:50;;;;;;;4.05;2.60;;;;;;;26.82;37.49;99424.16;4973462;28;20022;-77
2023/09/07 07:39:15;;;;;;;4.07;2.28;;;;;;;26.81;37.54;99423.34;4973054;28;20029;-77
2023/09/07 07:41:41;;;;;;;4.78;2.80;;;;;;;26.81;37.53;99417.97;4975604;28;20400;-77
2023/09/07 07:44:06;;;;;;;3.50;2.03;;;;;;;26.81;37.18;99412.63;4992446;28;20642;-77
2023/09/07 07:46:32;;;;;;;4.00;2.47;;;;;;;26.83;37.60;99415.19;4993006;28;20398;-78
2023/09/07 07:48:57;;;;;;;3.95;2.35;;;;;;;26.80;37.30;99413.63;4978176;28;20042;-79
2023/09/07 07:51:22;;;;;;;4.15;2.28;;;;;;;26.83;37.33;99414.31;4973376;28;20538;-77
2023/09/07 07:53:48;;;;;;;5.97;2.30;;;;;;;26.83;37.14;99414.31;4992190;28;20042;-77
2023/09/07 07:56:17;;;;;;;4.25;1.88;;;;;;;26.84;37.21;99422.22;4992643;28;20121;-78
2023/09/07 07:58:43;;;;;;;4.32;2.38;;;;;;;26.85;37.28;99425.72;4992712;28;20026;-77
2023/09/07 08:01:16;;;;;;;3.47;2.30;;;;;;;26.84;36.97;99424.03;4992504;28;20545;-78
2023/09/07 08:03:42;;;;;;;3.83;2.20;;;;;;;26.86;37.07;99435.44;4974365;28;20037;-77
2023/09/07 08:06:08;;;;;;;4.22;2.40;;;;;;;26.84;37.31;99422.22;5009171;28;20026;-77
2023/09/07 08:08:34;;;;;;;3.42;2.15;;;;;;;26.85;36.68;99425.72;5011874;28;20034;-77
2023/09/07 08:11:04;;;;;;;4.20;2.50;;;;;;;26.85;37.34;99425.72;5011701;28;20389;-76
2023/09/07 08:13:30;;;;;;;3.80;2.30;;;;;;;26.85;37.20;99423.06;4995325;28;20022;-78
2023/09/07 08:15:55;;;;;;;3.65;2.38;;;;;;;26.87;37.22;99418.44;4992406;28;20475;-77
2023/09/07 08:18:20;;;;;;;4.70;2.70;;;;;;;26.87;37.16;99421.09;4992171;28;20038;-77
2023/09/07 08:20:46;;;;;;;4.70;2.45;;;;;;;26.87;37.10;99415.75;4990433;28;20138;-77
2023/09/07 08:23:11;;;;;;;3.78;2.15;;;;;;;26.88;36.73;99422.81;4992011;28;20461;-77
2023/09/07 08:25:38;;;;;;;3.92;2.28;;;;;;;26.88;36.77;99422.81;4988921;28;20034;-78
2023/09/07 08:28:05;;;;;;;3.35;2.30;;;;;;;26.88;36.77;99428.16;4992173;28;20160;-78
2023/09/07 08:30:31;;;;;;;3.60;2.17;;;;;;;26.87;37.03;99424.63;4992264;28;20159;-77
2023/09/07 08:32:56;;;;;;;4.13;2.72;;;;;;;26.88;37.04;99425.47;4980414;28;20026;-78
2023/09/07 08:35:26;;;;;;;4.65;2.20;;;;;;;26.88;36.83;99434.34;4972296;28;20023;-77
2023/09/07 08:37:52;;;;;;;3.22;2.10;;;;;;;26.90;36.81;99436.88;4972907;28;20019;-78
2023/09/07 08:40:18;;;;;;;3.13;2.03;;;;;;;26.91;36.83;99438.59;4987168;28;20050;-77
2023/09/07 08:42:44;;;;;;;3.55;2.10;;;;;;;26.92;36.71;99440.34;4982470;28;20027;-77
2023/09/07 08:45:15;;;;;;;4.03;2.08;;;;;;;26.92;36.72;99437.66;4971427;28;20030;-77
2023/09/07 08:47:42;;;;;;;3.75;2.35;;;;;;;26.94;37.01;99438.34;4972706;28;20467;-78
2023/09/07 08:50:08;;;;;;;3.42;2.00;;;;;;;26.93;37.16;99436.66;4972247;28;20018;-77
2023/09/07 08:52:34;;;;;;;2.95;1.85;;;;;;;26.95;36.74;99434.69;4980880;28;20041;-77
2023/09/07 08:55:04;;;;;;;3.65;2.40;;;;;;;26.94;36.65;99438.34;4993637;28;20386;-77
2023/09/07 08:57:31;;;;;;;3.25;1.98;;;;;;;26.96;36.79;99435.56;4995814;28;20398;-77
2023/09/07 08:59:56;;;;;;;4.00;2.28;;;;;;;26.94;37.18;99433.84;4995634;28;20026;-78
2023/09/07 09:02:22;;;;;;;3.05;1.88;;;;;;;26.96;36.84;99436.38;4993907;28;20570;-77
2023/09/07 09:04:47;;;;;;;3.95;2.47;;;;;;;26.99;37.21;99436.13;5002542;28;20401;-77
2023/09/07 09:07:13;;;;;;;5.00;2.00;;;;;;;27.00;36.80;99435.16;5013615;28;20017;-77
2023/09/07 09:09:38;;;;;;;3.17;2.10;;;;;;;26.98;37.30;99437.13;5015063;28;20524;-77
2023/09/07 09:12:11;;;;;;;3.92;2.10;;;;;;;26.99;37.34;99430.78;5009703;28;20019;-77
2023/09/07 09:14:37;;;;;;;3.25;2.28;;;;;;;27.01;37.10;99420.78;4993972;28;20548;-77
2023/09/07 09:17:02;;;;;;;3.53;2.30;;;;;;;27.00;37.31;99424.44;4995444;28;20026;-77
2023/09/07 09:19:32;;;;;;;3.40;2.00;;;;;;;27.00;37.07;99427.13;4994781;28;20426;-77
2023/09/07 09:21:58;;;;;;;3.88;1.95;;;;;;;26.99;36.98;99429.91;4993816;28;20065;-77
2023/09/07 09:24:23;;;;;;;3.20;1.80;;;;;;;26.98;37.38;99429.09;4995285;28;20097;-77
2023/09/07 09:26:49;;;;;;;3.50;1.92;;;;;;;26.98;37.32;99415.69;4995057;28;20026;-76
2023/09/07 09:29:15;;;;;;;3.55;2.00;;;;;;;27.02;37.51;99426.97;4995192;28;20025;-77
2023/09/07 09:31:41;;;;;;;3.50;1.90;;;;;;;27.03;37.56;99426.00;4994602;28;20026;-77
2023/09/07 09:34:06;;;;;;;3.85;2.08;;;;;;;27.01;37.32;99415.41;4975350;28;20084;-77
2023/09/07 09:36:36;;;;;;;3.50;2.17;;;;;;;27.02;37.27;99419.78;4975408;28;20415;-77
2023/09/07 09:39:03;;;;;;;2.97;2.17;;;;;;;27.02;37.57;99417.09;4984636;28;20034;-77
2023/09/07 09:41:31;;;;;;;3.42;2.08;;;;;;;27.04;37.71;99407.13;4995012;28;20034;-78
2023/09/07 09:43:58;;;;;;;4.18;2.30;;;;;;;27.06;37.32;99421.22;4976038;28;20027;-78
2023/09/07 09:46:24;;;;;;;4.60;2.33;;;;;;;27.10;37.30;99415.59;4975490;28;20105;-77
2023/09/07 09:48:52;;;;;;;4.32;2.00;;;;;;;27.07;37.34;99406.84;4973549;28;20093;-77
2023/09/07 09:51:18;;;;;;;3.85;2.00;;;;;;;27.11;37.50;99418.13;4986677;28;20121;-78
2023/09/07 09:53:44;;;;;;;3.47;2.10;;;;;;;27.11;37.64;99406.59;4993362;28;20053;-77
2023/09/07 09:56:10;;;;;;;3.38;2.00;;;;;;;27.13;37.36;99409.97;4994593;28;20061;-77
2023/09/07 09:58:35;;;;;;;3.42;2.00;;;;;;;27.12;37.40;99410.94;4994494;28;20432;-77
2023/09/07 10:01:05;;;;;;;3.30;2.15;;;;;;;27.12;37.58;99414.47;4994420;28;20026;-77
2023/09/07 10:03:45;;;;;;;4.97;2.20;;;;;;;27.12;37.44;99411.78;4979142;28;20055;-78
2023/09/07 10:06:17;;;;;;;3.63;2.38;;;;;;;27.10;37.34;99405.72;5011004;28;20037;-77
2023/09/07 10:08:55;;;;;;;4.38;2.13;;;;;;;27.11;37.60;99401.22;5013813;28;20038;-77
2023/09/07 10:11:29;;;;;;;4.57;2.50;;;;;;;27.12;37.27;99392.22;5013843;28;20030;-77
2023/09/07 10:14:05;;;;;;;4.82;2.65;;;;;;;27.13;37.28;99393.91;4995591;28;20061;-77
2023/09/07 10:16:47;;;;;;;4.70;2.05;;;;;;;27.13;37.64;99399.25;4994256;28;20038;-77
2023/09/07 10:19:20;;;;;;;3.60;2.10;;;;;;;27.14;37.17;99384.88;4994266;28;20062;-76
2023/09/07 10:21:46;;;;;;;3.83;2.13;;;;;;;27.14;37.38;99390.22;4993901;28;20464;-77
2023/09/07 10:24:22;;;;;;;3.80;2.42;;;;;;;27.13;37.59;99394.75;4990775;28;20096;-78
2023/09/07 10:27:01;;;;;;;4.60;2.08;;;;;;;27.15;37.21;99398.13;4994126;28;20034;-78
2023/09/07 10:29:27;;;;;;;4.22;2.60;;;;;;;27.15;37.63;99398.13;4993954;28;20030;-77
2023/09/07 10:31:53;;;;;;;4.45;2.03;;;;;;;27.16;37.49;99399.81;4992604;28;20040;-77
2023/09/07 10:34:18;;;;;;;5.07;2.28;;;;;;;27.17;37.34;99400.69;4992651;28;20026;-77
2023/09/07 10:36:44;;;;;;;3.58;2.28;;;;;;;27.17;37.37;99404.19;4992582;28;20031;-77
2023/09/07 10:39:12;;;;;;;3.83;2.30;;;;;;;27.18;37.38;99403.22;4993251;28;20474;-77
2023/09/07 10:41:42;;;;;;;5.57;2.30;;;;;;;27.19;37.66;99410.28;4993886;28;20050;-76
2023/09/07 10:44:10;;;;;;;3.75;2.28;;;;;;;27.18;37.49;99402.38;4974535;28;20363;-77
2023/09/07 10:46:37;;;;;;;5.25;2.30;;;;;;;27.21;37.65;99402.09;4974031;28;20023;-77
2023/09/07 10:49:02;;;;;;;3.53;2.30;;;;;;;27.23;37.46;99405.50;4974222;28;20571;-78
2023/09/07 10:51:29;;;;;;;4.78;2.40;;;;;;;27.23;37.63;99405.50;4973901;28;20125;-77
2023/09/07 10:53:55;;;;;;;4.20;1.95;;;;;;;27.25;37.66;99408.03;4991217;28;20031;-78
2023/09/07 10:56:25;;;;;;;3.97;2.20;;;;;;;27.26;37.24;99410.56;4993532;28;20018;-77
2023/09/07 10:58:53;;;;;;;4.85;2.60;;;;;;;27.27;37.77;99406.94;4993243;28;20082;-77
2023/09/07 11:01:20;;;;;;;3.95;2.38;;;;;;;27.27;37.47;99412.28;4993050;28;20054;-77
2023/09/07 11:03:45;;;;;;;4.72;2.08;;;;;;;27.27;37.74;99406.94;4993365;28;20128;-77
2023/09/07 11:06:19;;;;;;;4.35;2.20;;;;;;;27.28;37.33;99408.63;5011709;28;20617;-77
2023/09/07 11:08:46;;;;;;;4.70;2.42;;;;;;;27.29;37.44;99402.28;5013044;28;20022;-77
2023/09/07 11:11:12;;;;;;;3.80;2.42;;;;;;;27.31;37.42;99392.25;5012695;28;20049;-77
2023/09/07 11:13:38;;;;;;;5.05;2.47;;;;;;;27.32;37.74;99382.41;4996591;28;20049;-78
2023/09/07 11:16:07;;;;;;;3.58;2.00;;;;;;;27.32;37.50;99387.75;4992738;28;20023;-77
2023/09/07 11:18:35;;;;;;;5.25;2.40;;;;;;;27.33;37.68;99392.13;4992794;28;20026;-77
2023/09/07 11:21:03;;;;;;;4.03;2.33;;;;;;;27.34;37.62;99386.63;4993113;28;20030;-76
2023/09/07 11:23:37;;;;;;;4.18;2.30;;;;;;;27.36;37.92;99377.59;4993034;28;20022;-77
2023/09/07 11:26:12;;;;;;;4.15;2.20;;;;;;;27.37;37.64;99376.63;4992701;28;20487;-77
2023/09/07 11:28:38;;;;;;;5.43;2.33;;;;;;;27.39;38.04;99388.03;4992875;28;20034;-77
2023/09/07 11:31:03;;;;;;;4.15;2.53;;;;;;;27.39;37.75;99393.38;4992163;28;20026;-77